CheckWX is a tool to help pilots better visualize weather data.  It is not intended as a substitute for an official pre-flight weather briefing.

13:54:22 UTC

KBWG TAF
Bowling Green-Warren County Regional Airport
Bowling Green, Kentucky, USA
KBWG 201120Z 2012/2112 26004KT P6SM SCT250 FM201400 32005KT P6SM SCT250

May-20@
12:00 UTC

May-20 @ 12:00 UTC

May-20@
14:00 UTC

May-20 @ 14:00 UTC

KBWG 201120Z 2012/2112 26004KT P6SM SCT250
Wind
  • 260° at 4 KTS
Cloud Levels
  • Scattered at 25,000' AGL

May-20@
14:00 UTC

May-20 @ 14:00 UTC

May-21@
12:00 UTC

May-21 @ 12:00 UTC

FM201400 32005KT P6SM SCT250

From

From Standard forecast or significant change

Wind
  • 320° at 5 KTS
Cloud Levels
  • Scattered at 25,000' AGL